Terminal Aerodrome Forecast
Issued by NWS

Home | Current Version | Previous Version | Text Only | Print | Product List | Glossary On
Versions: 1 2 3 4 5 6 7 8 9 10 11 12 13 14
000
FTUS44 KCRP 270520
TAFALI
TAF
KALI 270520Z 2706/2806 VRB06KT P6SM SCT025 BKN250
      TEMPO 2711/2715 -SHRA BKN025
     FM271500 07011KT P6SM VCTS SCT025 BKN035CB
      TEMPO 2719/2723 TSRA BKN025CB
     FM280000 VRB04KT P6SM SCT025=

USA.gov is the U.S. government's official web portal to all federal, state and local government web resources and services.